createdAt,value
2022-11-02T00:00:41.726Z,16.10
2022-11-02T00:03:09.180Z,16.10
2022-11-02T00:05:36.438Z,16.10
2022-11-02T00:08:03.584Z,16.10
2022-11-02T00:10:30.758Z,16.10
2022-11-02T00:12:57.661Z,16.10
2022-11-02T00:15:26.448Z,16.10
2022-11-02T00:17:55.249Z,16.10
2022-11-02T00:20:22.410Z,16.10
2022-11-02T00:22:51.275Z,16.00
2022-11-02T00:25:19.143Z,16.00
2022-11-02T00:27:46.155Z,15.90
2022-11-02T00:30:13.002Z,15.80
2022-11-02T00:32:39.973Z,15.80
2022-11-02T00:35:07.220Z,15.70
2022-11-02T00:40:00.907Z,15.60
2022-11-02T00:42:28.568Z,15.60
2022-11-02T00:44:55.470Z,15.60
2022-11-02T00:47:22.456Z,15.50
2022-11-02T00:49:49.324Z,15.50
2022-11-02T00:52:16.337Z,15.40
2022-11-02T00:54:43.289Z,15.40
2022-11-02T00:57:10.245Z,15.30
2022-11-02T00:59:37.178Z,15.30
2022-11-02T01:02:04.230Z,15.30
2022-11-02T01:04:31.253Z,15.20
2022-11-02T01:06:58.325Z,15.20
2022-11-02T01:09:25.299Z,15.20
2022-11-02T01:11:53.031Z,15.20
2022-11-02T01:14:20.110Z,15.20
2022-11-02T01:16:46.973Z,15.10
2022-11-02T01:19:14.592Z,15.10
2022-11-02T01:21:41.538Z,15.10
2022-11-02T01:24:08.592Z,15.10
2022-11-02T01:26:35.722Z,15.00
2022-11-02T01:29:02.660Z,15.10
2022-11-02T01:31:29.624Z,15.10
2022-11-02T01:33:56.446Z,15.00
2022-11-02T01:36:24.092Z,15.00
2022-11-02T01:38:51.263Z,15.00
2022-11-02T01:41:18.930Z,15.00
2022-11-02T01:43:46.711Z,14.90
2022-11-02T01:46:13.596Z,14.90
2022-11-02T01:48:45.763Z,14.90
2022-11-02T01:51:14.783Z,14.90
2022-11-02T01:53:44.395Z,14.90
2022-11-02T01:56:12.846Z,14.80
2022-11-02T01:58:40.092Z,14.90
2022-11-02T02:01:07.067Z,14.80
2022-11-02T02:03:35.485Z,14.90
2022-11-02T02:06:09.057Z,14.90
2022-11-02T02:08:38.656Z,14.80
2022-11-02T02:11:26.966Z,14.90
2022-11-02T02:13:59.178Z,14.80
2022-11-02T02:16:41.327Z,14.90
2022-11-02T02:19:34.571Z,14.90
2022-11-02T02:22:20.953Z,14.90
2022-11-02T02:24:47.848Z,14.80
2022-11-02T02:27:17.518Z,14.80
2022-11-02T02:29:47.737Z,14.80
2022-11-02T02:32:14.657Z,14.80
2022-11-02T02:34:44.628Z,14.80
2022-11-02T02:37:17.031Z,14.80
2022-11-02T02:39:58.174Z,14.80
2022-11-02T02:42:37.171Z,14.80
2022-11-02T02:45:12.167Z,14.80
2022-11-02T02:47:42.938Z,14.80
2022-11-02T02:50:21.459Z,14.80
2022-11-02T02:52:50.227Z,14.80
2022-11-02T02:55:18.870Z,14.80
2022-11-02T02:57:45.946Z,14.80
2022-11-02T03:00:16.787Z,14.80
2022-11-02T03:02:45.384Z,14.80
2022-11-02T03:05:22.750Z,14.80
2022-11-02T03:07:49.802Z,14.80
2022-11-02T03:10:16.631Z,14.80
2022-11-02T03:12:52.689Z,14.80
2022-11-02T03:15:22.193Z,14.70
2022-11-02T03:17:58.081Z,14.70
2022-11-02T03:20:24.928Z,14.70
2022-11-02T03:22:51.833Z,14.70
2022-11-02T03:25:22.878Z,14.80
2022-11-02T03:28:05.421Z,14.80
2022-11-02T03:30:36.937Z,14.70
2022-11-02T03:33:14.943Z,14.70
2022-11-02T03:35:47.417Z,14.60
2022-11-02T03:38:18.248Z,14.60
2022-11-02T03:40:47.258Z,14.60
2022-11-02T03:43:15.211Z,14.60
2022-11-02T03:45:44.718Z,14.60
2022-11-02T03:48:13.092Z,14.60
2022-11-02T03:50:42.312Z,14.50
2022-11-02T03:53:29.424Z,14.50
2022-11-02T03:56:00.559Z,14.50
2022-11-02T03:58:27.558Z,14.50
2022-11-02T04:00:56.928Z,14.50
2022-11-02T04:03:24.766Z,14.50
2022-11-02T04:05:52.078Z,14.50
2022-11-02T04:08:26.347Z,14.50
2022-11-02T04:11:11.909Z,14.40
2022-11-02T04:13:57.190Z,14.40
2022-11-02T04:16:26.616Z,14.40
2022-11-02T04:19:13.444Z,14.40
2022-11-02T04:21:40.654Z,14.30
2022-11-02T04:24:27.293Z,14.20
2022-11-02T04:26:54.203Z,14.20
2022-11-02T04:29:21.044Z,14.20
2022-11-02T04:31:47.976Z,14.20
2022-11-02T04:34:14.852Z,14.10
2022-11-02T04:36:41.876Z,14.10
2022-11-02T04:39:08.730Z,14.10
2022-11-02T04:41:46.827Z,14.10
2022-11-02T04:44:20.797Z,14.10
2022-11-02T04:46:51.986Z,14.10
2022-11-02T04:49:18.996Z,14.00
2022-11-02T04:51:49.747Z,14.00
2022-11-02T04:54:17.017Z,14.00
2022-11-02T04:56:43.968Z,14.00
2022-11-02T04:59:10.820Z,14.00
2022-11-02T05:01:37.846Z,14.00
2022-11-02T05:04:05.432Z,13.90
2022-11-02T05:06:32.280Z,13.90
2022-11-02T05:08:59.103Z,13.90
2022-11-02T05:11:25.929Z,13.90
2022-11-02T05:13:52.931Z,13.90
2022-11-02T05:16:20.031Z,13.90
2022-11-02T05:18:47.171Z,13.90
2022-11-02T05:21:14.067Z,13.90
2022-11-02T05:23:40.884Z,13.80
2022-11-02T05:26:10.356Z,13.70
2022-11-02T05:28:37.305Z,13.80
2022-11-02T05:31:04.891Z,13.80
2022-11-02T05:33:32.145Z,13.70
2022-11-02T05:35:59.626Z,13.70
2022-11-02T05:38:27.120Z,13.70
2022-11-02T05:40:54.899Z,13.60
2022-11-02T05:43:22.041Z,13.60
2022-11-02T05:45:55.953Z,13.60
2022-11-02T05:48:23.607Z,13.60
2022-11-02T05:50:54.756Z,13.60
2022-11-02T05:53:21.592Z,13.60
2022-11-02T05:55:48.696Z,13.50
2022-11-02T05:58:15.583Z,13.50
2022-11-02T06:00:42.538Z,13.50
2022-11-02T06:03:09.397Z,13.40
2022-11-02T06:05:36.378Z,13.40
2022-11-02T06:08:03.474Z,13.40
2022-11-02T06:10:31.036Z,13.40
2022-11-02T06:12:58.500Z,13.30
2022-11-02T06:15:25.441Z,13.30
2022-11-02T06:17:52.589Z,13.30
2022-11-02T06:20:20.002Z,13.30
2022-11-02T06:22:47.179Z,13.30
2022-11-02T06:25:14.659Z,13.20
2022-11-02T06:27:45.829Z,13.30
2022-11-02T06:30:13.352Z,13.20
2022-11-02T06:32:40.280Z,13.20
2022-11-02T06:35:07.331Z,13.20
2022-11-02T06:37:35.018Z,13.20
2022-11-02T06:40:02.033Z,13.10
2022-11-02T06:42:28.890Z,13.10
2022-11-02T06:45:02.414Z,13.10
2022-11-02T06:47:30.560Z,13.10
2022-11-02T06:49:57.402Z,13.10
2022-11-02T06:52:24.274Z,13.20
2022-11-02T06:54:51.214Z,13.20
2022-11-02T06:57:18.140Z,13.10
2022-11-02T06:59:47.754Z,13.10
2022-11-02T07:02:17.021Z,13.10
2022-11-02T07:04:43.880Z,13.10
2022-11-02T07:07:10.723Z,13.10
2022-11-02T07:09:38.315Z,13.10
2022-11-02T07:12:05.522Z,13.10
2022-11-02T07:14:32.363Z,13.10
2022-11-02T07:16:59.518Z,13.20
2022-11-02T07:19:26.355Z,13.10
2022-11-02T07:21:53.302Z,13.20
2022-11-02T07:24:20.151Z,13.20
2022-11-02T07:26:50.556Z,13.30
2022-11-02T07:29:17.941Z,13.30
2022-11-02T07:31:45.382Z,13.30
2022-11-02T07:34:16.861Z,13.30
2022-11-02T07:36:44.183Z,13.40
2022-11-02T07:39:11.229Z,13.30
2022-11-02T07:41:38.064Z,13.30
2022-11-02T07:44:05.094Z,13.40
2022-11-02T07:46:32.171Z,13.40
2022-11-02T07:48:59.134Z,13.40
2022-11-02T07:51:26.562Z,13.40
2022-11-02T07:53:53.773Z,13.50
2022-11-02T07:56:20.559Z,13.50
2022-11-02T07:58:47.938Z,13.50
2022-11-02T08:01:14.777Z,13.50
2022-11-02T08:03:42.237Z,13.50
2022-11-02T08:06:09.172Z,13.60
2022-11-02T08:08:36.250Z,13.60
2022-11-02T08:11:05.090Z,13.60
2022-11-02T08:13:33.107Z,13.60
2022-11-02T08:16:00.100Z,13.70
2022-11-02T08:18:28.088Z,13.70
2022-11-02T08:20:56.440Z,13.70
2022-11-02T08:23:23.949Z,13.70
2022-11-02T08:25:51.569Z,13.80
2022-11-02T08:28:20.151Z,13.80
2022-11-02T08:30:47.214Z,13.90
2022-11-02T08:33:16.006Z,13.90
2022-11-02T08:35:43.573Z,13.90
2022-11-02T08:38:11.001Z,14.00
2022-11-02T08:40:38.019Z,14.10
2022-11-02T08:43:09.802Z,14.10
2022-11-02T08:46:12.568Z,14.10
2022-11-02T08:48:25.923Z,14.10
2022-11-02T08:50:52.958Z,14.20
2022-11-02T08:53:19.808Z,14.20
2022-11-02T08:55:46.870Z,14.20
2022-11-02T08:58:13.721Z,14.30
2022-11-02T09:00:40.642Z,14.30
2022-11-02T09:03:14.349Z,14.40
2022-11-02T09:05:45.432Z,14.50
2022-11-02T09:08:13.689Z,14.50
2022-11-02T09:10:41.157Z,14.60
2022-11-02T09:13:08.952Z,14.60
2022-11-02T09:15:36.794Z,14.60
2022-11-02T09:18:04.703Z,14.70
2022-11-02T09:20:32.086Z,14.80
2022-11-02T09:22:58.948Z,14.80
2022-11-02T09:25:26.153Z,14.90
2022-11-02T09:27:56.919Z,14.90
2022-11-02T09:30:24.973Z,15.00
2022-11-02T09:32:59.381Z,15.00
2022-11-02T09:35:27.347Z,15.00
2022-11-02T09:37:54.293Z,15.00
2022-11-02T09:40:22.286Z,15.00
2022-11-02T09:42:59.043Z,15.10
2022-11-02T09:45:26.844Z,15.10
2022-11-02T09:48:16.903Z,15.10
2022-11-02T09:50:50.011Z,15.10
2022-11-02T09:53:26.540Z,15.20
2022-11-02T09:55:54.849Z,15.30
2022-11-02T09:58:25.256Z,15.30
2022-11-02T10:00:57.945Z,15.30
2022-11-02T10:03:48.017Z,15.40
2022-11-02T10:06:20.187Z,15.50
2022-11-02T10:08:50.194Z,15.60
2022-11-02T10:14:10.425Z,15.70
2022-11-02T10:16:40.313Z,15.70
2022-11-02T10:19:12.581Z,15.80
2022-11-02T10:21:42.268Z,15.90
2022-11-02T10:24:25.936Z,15.90
2022-11-02T10:26:56.154Z,16.00
2022-11-02T10:29:45.015Z,16.10
2022-11-02T10:32:12.589Z,16.10
2022-11-02T10:34:39.953Z,16.20
2022-11-02T10:37:22.838Z,16.20
2022-11-02T10:39:59.243Z,16.30
2022-11-02T10:42:35.153Z,16.40
2022-11-02T10:45:08.252Z,16.40
2022-11-02T10:47:41.746Z,16.50
2022-11-02T10:50:19.416Z,16.60
2022-11-02T10:52:46.413Z,16.60
2022-11-02T10:55:19.476Z,16.70
2022-11-02T10:57:46.738Z,16.80
2022-11-02T11:00:27.869Z,16.80
2022-11-02T11:03:07.172Z,16.90
2022-11-02T11:05:35.520Z,17.00
2022-11-02T11:08:03.050Z,17.00
2022-11-02T11:10:32.293Z,17.00
2022-11-02T11:12:59.409Z,17.00
2022-11-02T11:21:06.538Z,16.90
2022-11-02T11:23:33.494Z,16.80
2022-11-02T11:26:09.767Z,16.80
2022-11-02T11:28:52.150Z,16.90
2022-11-02T11:31:19.430Z,17.00
2022-11-02T11:33:53.125Z,17.20
2022-11-02T11:36:23.093Z,17.30
2022-11-02T11:38:50.784Z,17.50
2022-11-02T11:41:18.657Z,17.50
2022-11-02T11:43:46.025Z,17.60
2022-11-02T11:46:13.821Z,17.70
2022-11-02T11:48:48.766Z,17.90
2022-11-02T11:51:25.229Z,17.90
2022-11-02T11:54:11.260Z,18.00
2022-11-02T11:56:38.213Z,18.00
2022-11-02T11:59:05.160Z,18.00
2022-11-02T12:01:39.045Z,18.10
2022-11-02T12:04:05.972Z,18.20
2022-11-02T12:06:48.414Z,18.30
2022-11-02T12:09:31.838Z,18.20
2022-11-02T12:12:07.916Z,18.10
2022-11-02T12:14:34.739Z,18.00
2022-11-02T12:17:04.451Z,18.00
2022-11-02T12:19:36.310Z,18.10
2022-11-02T12:22:03.161Z,18.20
2022-11-02T12:24:39.933Z,18.30
2022-11-02T12:27:25.141Z,18.30
2022-11-02T12:29:52.045Z,18.30
2022-11-02T12:32:37.641Z,18.40
2022-11-02T12:37:56.956Z,18.40
2022-11-02T12:43:12.198Z,18.40
2022-11-02T12:45:48.363Z,18.30
2022-11-02T12:48:21.786Z,18.30
2022-11-02T12:51:01.818Z,18.30
2022-11-02T12:54:04.387Z,18.40
2022-11-02T12:56:32.924Z,18.40
2022-11-02T12:59:00.283Z,18.30
2022-11-02T13:01:38.915Z,18.30
2022-11-02T13:04:12.131Z,18.40
2022-11-02T13:06:41.535Z,18.40
2022-11-02T13:09:14.553Z,18.40
2022-11-02T13:11:43.484Z,18.50
2022-11-02T13:14:15.662Z,18.60
2022-11-02T13:16:50.918Z,18.70
2022-11-02T13:19:22.480Z,18.80
2022-11-02T13:21:55.161Z,18.70
2022-11-02T13:24:31.776Z,18.70
2022-11-02T13:27:13.839Z,18.60
2022-11-02T13:29:46.906Z,18.70
2022-11-02T13:32:33.386Z,18.80
2022-11-02T13:35:03.955Z,18.90
2022-11-02T13:37:35.025Z,19.00
2022-11-02T13:40:05.083Z,19.00
2022-11-02T13:42:50.713Z,19.00
2022-11-02T13:45:26.838Z,19.00
2022-11-02T13:47:56.758Z,18.90
2022-11-02T13:50:25.045Z,18.90
2022-11-02T13:52:59.969Z,18.80
2022-11-02T13:55:34.389Z,18.80
2022-11-02T13:58:01.335Z,18.70
2022-11-02T14:00:36.367Z,18.60
2022-11-02T14:03:12.369Z,18.60
2022-11-02T14:05:47.794Z,18.60
2022-11-02T14:08:21.562Z,18.60
2022-11-02T14:11:03.654Z,18.60
2022-11-02T14:13:49.453Z,18.60
2022-11-02T14:16:35.068Z,18.70
2022-11-02T14:19:21.214Z,18.70
2022-11-02T14:21:51.173Z,18.60
2022-11-02T14:24:36.420Z,18.60
2022-11-02T14:27:05.009Z,18.60
2022-11-02T14:29:47.347Z,18.60
2022-11-02T14:32:17.176Z,18.60
2022-11-02T14:34:48.083Z,18.60
2022-11-02T14:37:37.733Z,18.60
2022-11-02T14:40:18.112Z,18.60
2022-11-02T14:42:48.073Z,18.50
2022-11-02T14:45:28.267Z,18.50
2022-11-02T14:48:00.330Z,18.50
2022-11-02T14:50:27.279Z,18.50
2022-11-02T14:52:56.388Z,18.50
2022-11-02T14:55:25.569Z,18.40
2022-11-02T14:57:55.613Z,18.40
2022-11-02T15:00:29.077Z,18.30
2022-11-02T15:02:57.353Z,18.30
2022-11-02T15:05:24.222Z,18.30
2022-11-02T15:07:54.219Z,18.20
2022-11-02T15:10:21.078Z,18.20
2022-11-02T15:12:48.721Z,18.10
2022-11-02T15:15:28.163Z,18.00
2022-11-02T15:17:58.059Z,18.00
2022-11-02T15:20:32.546Z,18.00
2022-11-02T15:23:04.225Z,18.00
2022-11-02T15:25:36.969Z,17.90
2022-11-02T15:28:11.209Z,17.90
2022-11-02T15:30:43.831Z,17.90
2022-11-02T15:33:28.493Z,17.90
2022-11-02T15:35:55.873Z,17.90
2022-11-02T15:38:32.615Z,17.80
2022-11-02T15:41:18.395Z,17.80
2022-11-02T15:46:37.206Z,17.70
2022-11-02T15:49:10.089Z,17.60
2022-11-02T15:51:40.047Z,17.60
2022-11-02T15:54:25.752Z,17.50
2022-11-02T15:56:52.589Z,17.40
2022-11-02T15:59:28.748Z,17.30
2022-11-02T16:02:11.009Z,17.20
2022-11-02T16:04:38.446Z,17.10
2022-11-02T16:07:07.079Z,17.00
2022-11-02T16:09:39.364Z,16.80
2022-11-02T16:12:19.252Z,16.70
2022-11-02T16:14:53.053Z,16.50
2022-11-02T16:17:23.766Z,16.40
2022-11-02T16:19:51.086Z,16.30
2022-11-02T16:22:24.113Z,16.20
2022-11-02T16:24:51.516Z,16.10
2022-11-02T16:27:18.370Z,15.90
2022-11-02T16:29:45.341Z,15.80
2022-11-02T16:32:12.302Z,15.70
2022-11-02T16:34:42.608Z,15.60
2022-11-02T16:37:13.474Z,15.50
2022-11-02T16:39:44.665Z,15.40
2022-11-02T16:42:29.656Z,15.30
2022-11-02T16:45:01.463Z,15.30
2022-11-02T16:47:32.636Z,15.20
2022-11-02T16:49:59.703Z,15.10
2022-11-02T16:52:34.665Z,15.00
2022-11-02T16:55:02.085Z,14.90
2022-11-02T16:57:34.575Z,14.90
2022-11-02T17:00:07.999Z,14.80
2022-11-02T17:02:37.019Z,14.70
2022-11-02T17:05:06.689Z,14.70
2022-11-02T17:07:36.080Z,14.60
2022-11-02T17:10:04.409Z,14.60
2022-11-02T17:12:43.753Z,14.50
2022-11-02T17:15:20.882Z,14.50
2022-11-02T17:17:48.138Z,14.40
2022-11-02T17:20:15.467Z,14.30
2022-11-02T17:22:50.582Z,14.30
2022-11-02T17:25:25.434Z,14.20
2022-11-02T17:27:54.018Z,14.10
2022-11-02T17:30:29.952Z,14.10
2022-11-02T17:32:57.521Z,14.00
2022-11-02T17:35:27.242Z,14.00
2022-11-02T17:37:54.811Z,13.90
2022-11-02T17:40:22.268Z,13.90
2022-11-02T17:43:02.308Z,13.90
2022-11-02T17:45:33.915Z,13.90
2022-11-02T17:48:01.771Z,13.90
2022-11-02T17:50:29.843Z,13.80
2022-11-02T17:52:57.968Z,13.80
2022-11-02T17:55:28.916Z,13.90
2022-11-02T17:57:56.185Z,13.80
2022-11-02T18:00:24.052Z,13.80
2022-11-02T18:02:55.163Z,13.70
2022-11-02T18:05:26.754Z,13.70
2022-11-02T18:07:54.194Z,13.70
2022-11-02T18:10:22.062Z,13.70
2022-11-02T18:12:49.017Z,13.70
2022-11-02T18:15:20.417Z,13.70
2022-11-02T18:17:47.245Z,13.60
2022-11-02T18:20:14.888Z,13.60
2022-11-02T18:22:41.813Z,13.60
2022-11-02T18:25:10.804Z,13.60
2022-11-02T18:27:38.032Z,13.60
2022-11-02T18:30:05.795Z,13.60
2022-11-02T18:32:32.994Z,13.60
2022-11-02T18:34:59.932Z,13.60
2022-11-02T18:37:26.875Z,13.60
2022-11-02T18:39:53.669Z,13.60
2022-11-02T18:42:20.641Z,13.60
2022-11-02T18:44:47.714Z,13.60
2022-11-02T18:47:14.724Z,13.60
2022-11-02T18:49:41.870Z,13.60
2022-11-02T18:52:09.188Z,13.50
2022-11-02T18:54:36.067Z,13.50
2022-11-02T18:57:02.973Z,13.50
2022-11-02T18:59:29.841Z,13.50
2022-11-02T19:01:56.981Z,13.50
2022-11-02T19:04:24.110Z,13.50
2022-11-02T19:07:12.417Z,13.40
2022-11-02T19:09:42.229Z,13.40
2022-11-02T19:12:10.052Z,13.40
2022-11-02T19:14:43.939Z,13.40
2022-11-02T19:17:12.034Z,13.30
2022-11-02T19:19:41.127Z,13.20
2022-11-02T19:22:08.076Z,13.20
2022-11-02T19:24:35.149Z,13.20
2022-11-02T19:27:02.049Z,13.20
2022-11-02T19:29:28.929Z,13.20
2022-11-02T19:31:55.850Z,13.20
2022-11-02T19:34:24.025Z,13.20
2022-11-02T19:36:50.967Z,13.20
2022-11-02T19:39:17.786Z,13.20
2022-11-02T19:41:44.666Z,13.20
2022-11-02T19:44:11.624Z,13.20
2022-11-02T19:46:38.626Z,13.20
2022-11-02T19:49:05.691Z,13.20
2022-11-02T19:51:32.556Z,13.20
2022-11-02T19:54:00.395Z,13.20
2022-11-02T19:56:28.314Z,13.20
2022-11-02T19:58:55.427Z,13.20
2022-11-02T20:01:26.537Z,13.30
2022-11-02T20:03:53.985Z,13.30
2022-11-02T20:06:22.288Z,13.30
2022-11-02T20:08:53.537Z,13.30
2022-11-02T20:11:20.681Z,13.30
2022-11-02T20:13:48.239Z,13.30
2022-11-02T20:16:16.846Z,13.30
2022-11-02T20:18:44.677Z,13.30
2022-11-02T20:21:12.966Z,13.30
2022-11-02T20:23:40.214Z,13.30
2022-11-02T20:26:08.486Z,13.30
2022-11-02T20:28:39.650Z,13.30
2022-11-02T20:31:10.675Z,13.30
2022-11-02T20:33:38.233Z,13.30
2022-11-02T20:36:05.915Z,13.30
2022-11-02T20:38:33.330Z,13.30
2022-11-02T20:41:08.163Z,13.40
2022-11-02T20:43:35.864Z,13.40
2022-11-02T20:48:53.157Z,13.40
2022-11-02T20:51:21.167Z,13.40
2022-11-02T20:53:51.458Z,13.40
2022-11-02T20:56:18.818Z,13.30
2022-11-02T20:58:48.898Z,13.40
2022-11-02T21:01:18.612Z,13.40
2022-11-02T21:03:45.574Z,13.40
2022-11-02T21:06:12.640Z,13.40
2022-11-02T21:08:39.594Z,13.40
2022-11-02T21:11:29.255Z,13.50
2022-11-02T21:13:57.110Z,13.50
2022-11-02T21:16:23.994Z,13.50
2022-11-02T21:18:50.928Z,13.40
2022-11-02T21:21:18.820Z,13.50
2022-11-02T21:23:45.958Z,13.50
2022-11-02T21:26:13.823Z,13.50
2022-11-02T21:28:44.950Z,13.50
2022-11-02T21:31:19.620Z,13.50
2022-11-02T21:33:46.999Z,13.50
2022-11-02T21:36:14.800Z,13.60
2022-11-02T21:38:42.046Z,13.60
2022-11-02T21:41:09.376Z,13.60
2022-11-02T21:43:37.492Z,13.60
2022-11-02T21:46:06.172Z,13.60
2022-11-02T21:48:34.820Z,13.70
2022-11-02T21:51:09.435Z,13.70
2022-11-02T21:53:37.348Z,13.70
2022-11-02T21:56:06.160Z,13.70
2022-11-02T21:58:33.164Z,13.60
2022-11-02T22:01:23.684Z,13.70
2022-11-02T22:03:51.376Z,13.70
2022-11-02T22:06:18.572Z,13.70
2022-11-02T22:08:45.789Z,13.70
2022-11-02T22:11:13.691Z,13.70
2022-11-02T22:13:40.984Z,13.60
2022-11-02T22:16:22.222Z,13.60
2022-11-02T22:18:49.156Z,13.70
2022-11-02T22:21:16.858Z,13.60
2022-11-02T22:23:48.049Z,13.60
2022-11-02T22:26:16.246Z,13.70
2022-11-02T22:28:43.883Z,13.70
2022-11-02T22:31:23.181Z,13.70
2022-11-02T22:33:51.004Z,13.70
2022-11-02T22:36:19.570Z,13.70
2022-11-02T22:38:51.573Z,13.70
2022-11-02T22:41:20.430Z,13.70
2022-11-02T22:43:47.973Z,13.70
2022-11-02T22:46:15.122Z,13.70
2022-11-02T22:48:42.175Z,13.70
2022-11-02T22:51:09.397Z,13.70
2022-11-02T22:53:36.563Z,13.70
2022-11-02T22:56:05.075Z,13.70
2022-11-02T22:58:33.185Z,13.70
2022-11-02T23:01:00.576Z,13.70
2022-11-02T23:03:29.885Z,13.70
2022-11-02T23:05:56.780Z,13.70
2022-11-02T23:08:23.703Z,13.70
2022-11-02T23:11:12.904Z,13.70
2022-11-02T23:13:40.329Z,13.70
2022-11-02T23:24:54.556Z,13.90
2022-11-02T23:27:21.440Z,13.90
2022-11-02T23:30:06.720Z,14.00
2022-11-02T23:32:33.927Z,14.10
2022-11-02T23:35:39.437Z,14.10
2022-11-02T23:38:06.380Z,14.20
2022-11-02T23:40:33.314Z,14.20
2022-11-02T23:43:00.182Z,14.20
2022-11-02T23:45:27.072Z,14.20
2022-11-02T23:48:02.891Z,14.30
2022-11-02T23:50:49.646Z,14.30
2022-11-02T23:53:36.732Z,14.30
2022-11-02T23:56:22.991Z,14.30
2022-11-02T23:59:06.606Z,14.30
